sensor_id;sensor_type;location;lat;lon;timestamp;pressure;altitude;pressure_sealevel;temperature;humidity
40948;BME280;49382;-25.924;28.194;2022-10-16T00:01:51;85262.35;;;19.57;37.65
40948;BME280;49382;-25.924;28.194;2022-10-16T00:04:16;85256.64;;;20.29;36.87
40948;BME280;49382;-25.924;28.194;2022-10-16T00:06:42;85251.48;;;18.77;39.35
40948;BME280;49382;-25.924;28.194;2022-10-16T00:09:08;85252.94;;;20.23;37.55
40948;BME280;49382;-25.924;28.194;2022-10-16T00:11:34;85251.69;;;20.25;36.88
40948;BME280;49382;-25.924;28.194;2022-10-16T00:13:59;85254.65;;;19.96;37.36
40948;BME280;49382;-25.924;28.194;2022-10-16T00:16:24;85261.63;;;21.83;35.24
40948;BME280;49382;-25.924;28.194;2022-10-16T00:18:49;85244.55;;;21.18;35.91
40948;BME280;49382;-25.924;28.194;2022-10-16T00:21:17;85230.98;;;20.33;36.95
40948;BME280;49382;-25.924;28.194;2022-10-16T00:23:41;85227.24;;;19.33;38.95
40948;BME280;49382;-25.924;28.194;2022-10-16T00:26:08;85231.90;;;21.14;36.54
40948;BME280;49382;-25.924;28.194;2022-10-16T00:28:34;85239.29;;;19.87;38.77
40948;BME280;49382;-25.924;28.194;2022-10-16T00:30:57;85236.46;;;20.09;37.99
40948;BME280;49382;-25.924;28.194;2022-10-16T00:33:23;85236.35;;;20.32;38.35
40948;BME280;49382;-25.924;28.194;2022-10-16T00:35:49;85232.57;;;20.02;38.17
40948;BME280;49382;-25.924;28.194;2022-10-16T00:38:14;85229.13;;;19.17;40.10
40948;BME280;49382;-25.924;28.194;2022-10-16T00:40:40;85230.31;;;19.85;39.27
40948;BME280;49382;-25.924;28.194;2022-10-16T00:43:12;85235.01;;;20.38;37.91
40948;BME280;49382;-25.924;28.194;2022-10-16T00:45:30;85226.25;;;20.23;38.21
40948;BME280;49382;-25.924;28.194;2022-10-16T00:47:56;85219.40;;;19.84;39.30
40948;BME280;49382;-25.924;28.194;2022-10-16T00:50:26;85211.08;;;20.81;38.17
40948;BME280;49382;-25.924;28.194;2022-10-16T00:52:48;85211.50;;;19.63;39.68
40948;BME280;49382;-25.924;28.194;2022-10-16T00:55:12;85226.17;;;19.99;39.01
40948;BME280;49382;-25.924;28.194;2022-10-16T00:57:38;85219.72;;;19.20;41.16
40948;BME280;49382;-25.924;28.194;2022-10-16T01:00:03;85215.35;;;20.27;39.70
40948;BME280;49382;-25.924;28.194;2022-10-16T01:02:28;85212.92;;;19.41;40.95
40948;BME280;49382;-25.924;28.194;2022-10-16T01:04:53;85218.88;;;20.87;38.60
40948;BME280;49382;-25.924;28.194;2022-10-16T01:07:30;85226.24;;;19.36;41.16
40948;BME280;49382;-25.924;28.194;2022-10-16T01:09:55;85227.52;;;18.43;42.97
40948;BME280;49382;-25.924;28.194;2022-10-16T01:12:14;85227.65;;;19.39;41.18
40948;BME280;49382;-25.924;28.194;2022-10-16T01:14:42;85227.62;;;18.91;42.25
40948;BME280;49382;-25.924;28.194;2022-10-16T01:17:06;85228.68;;;18.42;43.24
40948;BME280;49382;-25.924;28.194;2022-10-16T01:19:38;85220.75;;;19.55;40.63
40948;BME280;49382;-25.924;28.194;2022-10-16T01:21:52;85226.40;;;19.84;40.22
40948;BME280;49382;-25.924;28.194;2022-10-16T01:24:25;85226.18;;;18.73;42.73
40948;BME280;49382;-25.924;28.194;2022-10-16T01:29:09;85236.50;;;18.06;44.06
40948;BME280;49382;-25.924;28.194;2022-10-16T01:31:35;85236.62;;;19.23;42.03
40948;BME280;49382;-25.924;28.194;2022-10-16T01:34:02;85237.28;;;18.03;44.86
40948;BME280;49382;-25.924;28.194;2022-10-16T01:36:28;85241.51;;;18.15;44.13
40948;BME280;49382;-25.924;28.194;2022-10-16T01:38:51;85243.63;;;18.71;43.08
40948;BME280;49382;-25.924;28.194;2022-10-16T01:41:18;85240.94;;;17.55;44.85
40948;BME280;49382;-25.924;28.194;2022-10-16T01:43:42;85238.02;;;17.96;44.11
40948;BME280;49382;-25.924;28.194;2022-10-16T01:46:06;85243.02;;;18.45;43.45
40948;BME280;49382;-25.924;28.194;2022-10-16T01:48:31;85242.77;;;18.70;43.06
40948;BME280;49382;-25.924;28.194;2022-10-16T01:50:59;85243.97;;;17.02;46.81
40948;BME280;49382;-25.924;28.194;2022-10-16T01:53:23;85235.27;;;18.04;44.43
40948;BME280;49382;-25.924;28.194;2022-10-16T01:55:48;85237.12;;;18.21;44.08
40948;BME280;49382;-25.924;28.194;2022-10-16T01:58:14;85247.46;;;18.47;43.68
40948;BME280;49382;-25.924;28.194;2022-10-16T02:00:39;85250.99;;;17.68;44.95
40948;BME280;49382;-25.924;28.194;2022-10-16T02:03:05;85261.04;;;19.38;41.95
40948;BME280;49382;-25.924;28.194;2022-10-16T02:05:32;85261.90;;;20.09;41.00
40948;BME280;49382;-25.924;28.194;2022-10-16T02:07:55;85255.36;;;17.51;44.94
40948;BME280;49382;-25.924;28.194;2022-10-16T02:10:21;85255.47;;;18.26;44.23
40948;BME280;49382;-25.924;28.194;2022-10-16T02:12:50;85250.03;;;19.14;43.00
40948;BME280;49382;-25.924;28.194;2022-10-16T02:15:11;85252.52;;;18.67;43.82
40948;BME280;49382;-25.924;28.194;2022-10-16T02:17:37;85250.53;;;18.43;43.21
40948;BME280;49382;-25.924;28.194;2022-10-16T02:20:03;85251.31;;;17.96;45.44
40948;BME280;49382;-25.924;28.194;2022-10-16T02:22:31;85251.94;;;18.93;43.21
40948;BME280;49382;-25.924;28.194;2022-10-16T02:24:56;85255.36;;;17.74;44.83
40948;BME280;49382;-25.924;28.194;2022-10-16T02:27:22;85254.50;;;19.15;42.63
40948;BME280;49382;-25.924;28.194;2022-10-16T02:29:47;85258.24;;;18.33;44.18
40948;BME280;49382;-25.924;28.194;2022-10-16T02:32:10;85263.39;;;18.94;43.26
40948;BME280;49382;-25.924;28.194;2022-10-16T02:34:34;85263.72;;;17.83;45.00
40948;BME280;49382;-25.924;28.194;2022-10-16T02:37:01;85263.80;;;18.79;43.70
40948;BME280;49382;-25.924;28.194;2022-10-16T02:39:25;85265.60;;;19.23;43.57
40948;BME280;49382;-25.924;28.194;2022-10-16T02:41:50;85266.06;;;18.74;43.00
40948;BME280;49382;-25.924;28.194;2022-10-16T02:44:15;85267.84;;;19.02;42.50
40948;BME280;49382;-25.924;28.194;2022-10-16T02:46:40;85266.60;;;19.01;42.06
40948;BME280;49382;-25.924;28.194;2022-10-16T02:49:06;85271.57;;;18.26;44.22
40948;BME280;49382;-25.924;28.194;2022-10-16T02:51:31;85275.26;;;19.74;41.06
40948;BME280;49382;-25.924;28.194;2022-10-16T02:53:57;85276.22;;;19.02;42.10
40948;BME280;49382;-25.924;28.194;2022-10-16T02:56:22;85276.16;;;19.76;40.88
40948;BME280;49382;-25.924;28.194;2022-10-16T02:58:47;85275.10;;;19.22;42.54
40948;BME280;49382;-25.924;28.194;2022-10-16T03:01:12;85280.01;;;20.14;40.50
40948;BME280;49382;-25.924;28.194;2022-10-16T03:03:37;85283.64;;;19.52;41.79
40948;BME280;49382;-25.924;28.194;2022-10-16T03:06:02;85282.45;;;19.57;41.34
40948;BME280;49382;-25.924;28.194;2022-10-16T03:08:28;85281.83;;;20.34;40.53
40948;BME280;49382;-25.924;28.194;2022-10-16T03:10:53;85284.75;;;19.46;41.72
40948;BME280;49382;-25.924;28.194;2022-10-16T03:13:19;85285.63;;;19.38;41.85
40948;BME280;49382;-25.924;28.194;2022-10-16T03:15:44;85286.62;;;19.42;41.31
40948;BME280;49382;-25.924;28.194;2022-10-16T03:18:09;85285.28;;;19.69;41.25
40948;BME280;49382;-25.924;28.194;2022-10-16T03:20:35;85284.76;;;18.68;42.89
40948;BME280;49382;-25.924;28.194;2022-10-16T03:23:00;85286.82;;;19.48;41.20
40948;BME280;49382;-25.924;28.194;2022-10-16T03:25:26;85290.51;;;19.19;41.42
40948;BME280;49382;-25.924;28.194;2022-10-16T03:27:51;85289.36;;;19.28;41.93
40948;BME280;49382;-25.924;28.194;2022-10-16T03:30:16;85295.75;;;17.81;45.38
40948;BME280;49382;-25.924;28.194;2022-10-16T03:32:41;85298.42;;;18.68;43.36
40948;BME280;49382;-25.924;28.194;2022-10-16T03:35:07;85299.81;;;18.55;43.45
40948;BME280;49382;-25.924;28.194;2022-10-16T03:37:32;85302.94;;;19.47;41.90
40948;BME280;49382;-25.924;28.194;2022-10-16T03:39:57;85302.58;;;18.75;42.59
40948;BME280;49382;-25.924;28.194;2022-10-16T03:42:23;85304.58;;;19.25;42.29
40948;BME280;49382;-25.924;28.194;2022-10-16T03:44:48;85309.73;;;18.94;42.47
40948;BME280;49382;-25.924;28.194;2022-10-16T03:47:13;85302.73;;;18.74;42.67
40948;BME280;49382;-25.924;28.194;2022-10-16T03:49:39;85306.68;;;18.60;42.62
40948;BME280;49382;-25.924;28.194;2022-10-16T03:52:04;85307.95;;;19.59;41.65
40948;BME280;49382;-25.924;28.194;2022-10-16T03:54:29;85314.85;;;19.43;41.53
40948;BME280;49382;-25.924;28.194;2022-10-16T03:56:54;85323.70;;;18.45;42.52
40948;BME280;49382;-25.924;28.194;2022-10-16T03:59:19;85324.20;;;19.17;41.89
40948;BME280;49382;-25.924;28.194;2022-10-16T04:01:45;85328.59;;;18.99;42.65
40948;BME280;49382;-25.924;28.194;2022-10-16T04:04:10;85336.06;;;17.92;44.04
40948;BME280;49382;-25.924;28.194;2022-10-16T04:06:36;85334.24;;;19.01;41.91
40948;BME280;49382;-25.924;28.194;2022-10-16T04:09:01;85333.02;;;18.93;42.07
40948;BME280;49382;-25.924;28.194;2022-10-16T04:11:26;85335.60;;;19.63;41.48
40948;BME280;49382;-25.924;28.194;2022-10-16T04:13:52;85331.37;;;19.84;40.62
40948;BME280;49382;-25.924;28.194;2022-10-16T04:16:17;85344.16;;;19.26;41.57
40948;BME280;49382;-25.924;28.194;2022-10-16T04:18:43;85340.67;;;19.36;41.19
40948;BME280;49382;-25.924;28.194;2022-10-16T04:21:08;85345.00;;;18.50;42.37
40948;BME280;49382;-25.924;28.194;2022-10-16T04:23:33;85356.57;;;19.33;41.34
40948;BME280;49382;-25.924;28.194;2022-10-16T04:25:58;85357.60;;;18.65;43.40
40948;BME280;49382;-25.924;28.194;2022-10-16T04:28:24;85364.31;;;19.78;41.31
40948;BME280;49382;-25.924;28.194;2022-10-16T04:30:49;85363.32;;;19.69;41.30
40948;BME280;49382;-25.924;28.194;2022-10-16T04:33:14;85372.13;;;18.69;43.21
40948;BME280;49382;-25.924;28.194;2022-10-16T04:35:40;85375.46;;;20.06;40.64
40948;BME280;49382;-25.924;28.194;2022-10-16T04:38:06;85376.98;;;20.14;40.73
40948;BME280;49382;-25.924;28.194;2022-10-16T04:40:31;85376.52;;;19.68;40.95
40948;BME280;49382;-25.924;28.194;2022-10-16T04:42:57;85378.62;;;20.50;40.58
40948;BME280;49382;-25.924;28.194;2022-10-16T04:45:22;85381.99;;;20.08;40.80
40948;BME280;49382;-25.924;28.194;2022-10-16T04:47:47;85384.90;;;19.44;41.42
40948;BME280;49382;-25.924;28.194;2022-10-16T04:50:13;85382.78;;;20.01;40.78
40948;BME280;49382;-25.924;28.194;2022-10-16T04:52:38;85380.31;;;19.85;41.34
40948;BME280;49382;-25.924;28.194;2022-10-16T04:55:03;85375.94;;;19.95;41.15
40948;BME280;49382;-25.924;28.194;2022-10-16T04:57:29;85374.64;;;18.84;42.19
40948;BME280;49382;-25.924;28.194;2022-10-16T04:59:54;85376.60;;;19.34;41.91
40948;BME280;49382;-25.924;28.194;2022-10-16T05:02:19;85383.35;;;20.38;39.99
40948;BME280;49382;-25.924;28.194;2022-10-16T05:04:44;85380.16;;;19.26;42.31
40948;BME280;49382;-25.924;28.194;2022-10-16T05:07:10;85382.18;;;17.93;44.92
40948;BME280;49382;-25.924;28.194;2022-10-16T05:09:36;85376.69;;;19.50;42.49
40948;BME280;49382;-25.924;28.194;2022-10-16T05:12:01;85381.17;;;18.99;43.18
40948;BME280;49382;-25.924;28.194;2022-10-16T05:14:26;85374.27;;;18.80;43.48
40948;BME280;49382;-25.924;28.194;2022-10-16T05:16:51;85389.16;;;18.69;44.22
40948;BME280;49382;-25.924;28.194;2022-10-16T05:19:16;85392.84;;;18.19;45.68
40948;BME280;49382;-25.924;28.194;2022-10-16T05:21:42;85391.51;;;16.62;48.47
40948;BME280;49382;-25.924;28.194;2022-10-16T05:24:07;85395.07;;;18.10;45.84
40948;BME280;49382;-25.924;28.194;2022-10-16T05:26:33;85397.35;;;18.38;44.83
40948;BME280;49382;-25.924;28.194;2022-10-16T05:28:58;85394.26;;;18.59;44.41
40948;BME280;49382;-25.924;28.194;2022-10-16T05:31:24;85403.25;;;18.79;43.67
40948;BME280;49382;-25.924;28.194;2022-10-16T05:33:49;85396.15;;;19.05;43.05
40948;BME280;49382;-25.924;28.194;2022-10-16T05:36:14;85395.86;;;20.18;41.59
40948;BME280;49382;-25.924;28.194;2022-10-16T05:38:40;85400.96;;;19.00;43.24
40948;BME280;49382;-25.924;28.194;2022-10-16T05:41:06;85404.16;;;18.70;44.23
40948;BME280;49382;-25.924;28.194;2022-10-16T05:43:32;85403.67;;;19.80;42.16
40948;BME280;49382;-25.924;28.194;2022-10-16T05:45:56;85404.76;;;19.41;41.97
40948;BME280;49382;-25.924;28.194;2022-10-16T05:48:21;85403.99;;;19.22;42.97
40948;BME280;49382;-25.924;28.194;2022-10-16T05:50:47;85406.37;;;19.83;41.78
40948;BME280;49382;-25.924;28.194;2022-10-16T05:53:13;85407.96;;;21.04;39.81
40948;BME280;49382;-25.924;28.194;2022-10-16T05:55:38;85408.45;;;19.99;40.16
40948;BME280;49382;-25.924;28.194;2022-10-16T05:58:04;85414.54;;;18.34;43.93
40948;BME280;49382;-25.924;28.194;2022-10-16T06:00:29;85415.78;;;21.44;39.15
40948;BME280;49382;-25.924;28.194;2022-10-16T06:02:54;85409.35;;;19.92;40.79
40948;BME280;49382;-25.924;28.194;2022-10-16T06:05:20;85413.07;;;20.70;39.55
40948;BME280;49382;-25.924;28.194;2022-10-16T06:07:46;85425.72;;;20.40;40.57
40948;BME280;49382;-25.924;28.194;2022-10-16T06:10:10;85426.63;;;18.83;43.02
40948;BME280;49382;-25.924;28.194;2022-10-16T06:12:36;85439.48;;;20.39;40.77
40948;BME280;49382;-25.924;28.194;2022-10-16T06:15:01;85431.12;;;19.40;41.95
40948;BME280;49382;-25.924;28.194;2022-10-16T06:17:26;85431.20;;;20.40;40.86
40948;BME280;49382;-25.924;28.194;2022-10-16T06:19:51;85438.69;;;20.24;40.99
40948;BME280;49382;-25.924;28.194;2022-10-16T06:22:17;85422.44;;;18.97;42.32
40948;BME280;49382;-25.924;28.194;2022-10-16T06:24:42;85422.65;;;19.76;41.52
40948;BME280;49382;-25.924;28.194;2022-10-16T06:27:07;85432.36;;;20.05;40.58
40948;BME280;49382;-25.924;28.194;2022-10-16T06:29:33;85442.25;;;18.87;42.00
40948;BME280;49382;-25.924;28.194;2022-10-16T06:31:58;85443.27;;;18.90;42.41
40948;BME280;49382;-25.924;28.194;2022-10-16T06:34:24;85442.55;;;20.60;39.97
40948;BME280;49382;-25.924;28.194;2022-10-16T06:36:49;85436.44;;;21.18;38.04
40948;BME280;49382;-25.924;28.194;2022-10-16T06:39:14;85432.18;;;21.23;38.76
40948;BME280;49382;-25.924;28.194;2022-10-16T06:41:40;85428.11;;;20.29;39.76
40948;BME280;49382;-25.924;28.194;2022-10-16T06:44:06;85432.00;;;21.13;38.40
40948;BME280;49382;-25.924;28.194;2022-10-16T06:46:30;85425.09;;;20.71;38.71
40948;BME280;49382;-25.924;28.194;2022-10-16T06:48:56;85432.99;;;19.43;40.75
40948;BME280;49382;-25.924;28.194;2022-10-16T06:51:22;85422.97;;;20.84;38.32
40948;BME280;49382;-25.924;28.194;2022-10-16T06:53:48;85426.58;;;22.49;36.00
40948;BME280;49382;-25.924;28.194;2022-10-16T06:56:13;85435.28;;;19.74;39.52
40948;BME280;49382;-25.924;28.194;2022-10-16T06:58:37;85430.73;;;19.69;39.22
40948;BME280;49382;-25.924;28.194;2022-10-16T07:01:02;85431.70;;;20.88;37.35
40948;BME280;49382;-25.924;28.194;2022-10-16T07:03:27;85424.95;;;20.43;39.77
40948;BME280;49382;-25.924;28.194;2022-10-16T07:05:53;85420.66;;;21.28;37.50
40948;BME280;49382;-25.924;28.194;2022-10-16T07:08:19;85427.00;;;20.94;37.78
40948;BME280;49382;-25.924;28.194;2022-10-16T07:10:44;85422.02;;;20.90;37.12
40948;BME280;49382;-25.924;28.194;2022-10-16T07:13:10;85421.39;;;19.34;40.50
40948;BME280;49382;-25.924;28.194;2022-10-16T07:15:36;85424.37;;;20.64;37.34
40948;BME280;49382;-25.924;28.194;2022-10-16T07:18:02;85421.21;;;20.72;37.19
40948;BME280;49382;-25.924;28.194;2022-10-16T07:20:27;85435.00;;;22.74;35.26
40948;BME280;49382;-25.924;28.194;2022-10-16T07:22:53;85429.01;;;22.80;34.80
40948;BME280;49382;-25.924;28.194;2022-10-16T07:25:19;85419.73;;;22.58;33.83
40948;BME280;49382;-25.924;28.194;2022-10-16T07:27:45;85416.96;;;23.44;32.62
40948;BME280;49382;-25.924;28.194;2022-10-16T07:30:11;85422.00;;;22.91;33.32
40948;BME280;49382;-25.924;28.194;2022-10-16T07:32:36;85419.02;;;22.86;33.91
40948;BME280;49382;-25.924;28.194;2022-10-16T07:35:02;85425.66;;;23.28;33.43
40948;BME280;49382;-25.924;28.194;2022-10-16T07:37:28;85424.22;;;22.25;34.14
40948;BME280;49382;-25.924;28.194;2022-10-16T07:39:54;85424.61;;;23.51;32.24
40948;BME280;49382;-25.924;28.194;2022-10-16T07:42:20;85421.39;;;22.91;33.00
40948;BME280;49382;-25.924;28.194;2022-10-16T07:44:46;85419.54;;;22.16;34.43
40948;BME280;49382;-25.924;28.194;2022-10-16T07:47:11;85415.65;;;21.59;35.30
40948;BME280;49382;-25.924;28.194;2022-10-16T07:49:37;85413.12;;;23.06;34.07
40948;BME280;49382;-25.924;28.194;2022-10-16T07:52:03;85408.32;;;22.24;34.03
40948;BME280;49382;-25.924;28.194;2022-10-16T07:54:29;85408.66;;;22.35;33.80
40948;BME280;49382;-25.924;28.194;2022-10-16T07:56:55;85413.31;;;23.13;33.77
40948;BME280;49382;-25.924;28.194;2022-10-16T07:59:21;85413.67;;;22.54;34.59
40948;BME280;49382;-25.924;28.194;2022-10-16T08:01:46;85411.26;;;22.61;34.11
40948;BME280;49382;-25.924;28.194;2022-10-16T08:04:12;85408.98;;;23.03;34.63
40948;BME280;49382;-25.924;28.194;2022-10-16T08:06:39;85408.80;;;23.62;32.92
40948;BME280;49382;-25.924;28.194;2022-10-16T08:09:04;85405.58;;;22.34;33.98
40948;BME280;49382;-25.924;28.194;2022-10-16T08:11:29;85398.31;;;23.67;33.25
40948;BME280;49382;-25.924;28.194;2022-10-16T08:13:55;85403.28;;;22.26;34.66
40948;BME280;49382;-25.924;28.194;2022-10-16T08:16:21;85393.60;;;22.90;33.83
40948;BME280;49382;-25.924;28.194;2022-10-16T08:18:46;85396.17;;;24.75;32.10
40948;BME280;49382;-25.924;28.194;2022-10-16T08:21:15;85383.15;;;24.43;31.74
40948;BME280;49382;-25.924;28.194;2022-10-16T08:23:37;85378.67;;;24.67;32.18
40948;BME280;49382;-25.924;28.194;2022-10-16T08:26:05;85377.20;;;25.68;31.81
40948;BME280;49382;-25.924;28.194;2022-10-16T08:28:28;85377.62;;;24.26;31.36
40948;BME280;49382;-25.924;28.194;2022-10-16T08:30:54;85379.22;;;25.42;30.52
40948;BME280;49382;-25.924;28.194;2022-10-16T08:33:19;85373.49;;;25.84;29.92
40948;BME280;49382;-25.924;28.194;2022-10-16T08:35:51;85376.88;;;25.57;29.85
40948;BME280;49382;-25.924;28.194;2022-10-16T08:38:11;85383.66;;;26.00;29.15
40948;BME280;49382;-25.924;28.194;2022-10-16T08:40:37;85384.39;;;25.64;30.22
40948;BME280;49382;-25.924;28.194;2022-10-16T08:43:11;85374.46;;;25.54;31.21
40948;BME280;49382;-25.924;28.194;2022-10-16T08:45:34;85370.16;;;25.27;30.46
40948;BME280;49382;-25.924;28.194;2022-10-16T08:48:02;85361.65;;;25.70;29.68
40948;BME280;49382;-25.924;28.194;2022-10-16T08:50:23;85354.72;;;25.93;31.82
40948;BME280;49382;-25.924;28.194;2022-10-16T08:52:45;85360.08;;;25.93;30.92
40948;BME280;49382;-25.924;28.194;2022-10-16T08:55:19;85355.17;;;24.80;30.41
40948;BME280;49382;-25.924;28.194;2022-10-16T08:57:36;85357.15;;;24.66;30.75
40948;BME280;49382;-25.924;28.194;2022-10-16T09:00:12;85363.32;;;24.81;29.45
40948;BME280;49382;-25.924;28.194;2022-10-16T09:02:32;85369.21;;;25.03;29.03
40948;BME280;49382;-25.924;28.194;2022-10-16T09:05:03;85366.18;;;24.52;29.47
40948;BME280;49382;-25.924;28.194;2022-10-16T09:07:25;85371.23;;;26.16;28.60
40948;BME280;49382;-25.924;28.194;2022-10-16T09:09:56;85367.47;;;25.98;28.47
40948;BME280;49382;-25.924;28.194;2022-10-16T09:12:15;85368.39;;;25.85;29.20
40948;BME280;49382;-25.924;28.194;2022-10-16T09:17:18;85356.16;;;25.92;28.85
40948;BME280;49382;-25.924;28.194;2022-10-16T09:19:33;85358.31;;;25.26;29.27
40948;BME280;49382;-25.924;28.194;2022-10-16T09:21:54;85352.26;;;26.39;27.95
40948;BME280;49382;-25.924;28.194;2022-10-16T09:24:21;85353.49;;;25.47;29.69
40948;BME280;49382;-25.924;28.194;2022-10-16T09:26:45;85355.16;;;26.49;28.90
40948;BME280;49382;-25.924;28.194;2022-10-16T09:29:12;85343.20;;;25.46;29.08
40948;BME280;49382;-25.924;28.194;2022-10-16T09:31:37;85328.56;;;25.36;29.87
40948;BME280;49382;-25.924;28.194;2022-10-16T09:34:04;85342.46;;;25.24;28.63
40948;BME280;49382;-25.924;28.194;2022-10-16T09:36:29;85336.03;;;26.60;27.21
40948;BME280;49382;-25.924;28.194;2022-10-16T09:41:21;85346.71;;;24.23;29.86
40948;BME280;49382;-25.924;28.194;2022-10-16T09:43:49;85344.60;;;24.77;29.36
40948;BME280;49382;-25.924;28.194;2022-10-16T09:48:39;85331.44;;;25.64;29.43
40948;BME280;49382;-25.924;28.194;2022-10-16T09:51:04;85343.01;;;25.28;28.07
40948;BME280;49382;-25.924;28.194;2022-10-16T09:53:38;85336.88;;;25.20;28.61
40948;BME280;49382;-25.924;28.194;2022-10-16T09:55:54;85324.28;;;25.22;28.98
40948;BME280;49382;-25.924;28.194;2022-10-16T09:58:22;85326.02;;;22.96;31.48
40948;BME280;49382;-25.924;28.194;2022-10-16T10:00:51;85314.57;;;24.00;30.22
40948;BME280;49382;-25.924;28.194;2022-10-16T10:03:11;85313.99;;;24.31;30.08
40948;BME280;49382;-25.924;28.194;2022-10-16T10:05:38;85316.14;;;23.99;30.60
40948;BME280;49382;-25.924;28.194;2022-10-16T10:08:03;85311.34;;;23.60;30.84
40948;BME280;49382;-25.924;28.194;2022-10-16T10:10:29;85315.88;;;23.40;31.37
40948;BME280;49382;-25.924;28.194;2022-10-16T10:12:54;85305.80;;;23.73;30.03
40948;BME280;49382;-25.924;28.194;2022-10-16T10:15:19;85299.53;;;22.80;31.78
40948;BME280;49382;-25.924;28.194;2022-10-16T10:17:47;85290.52;;;23.56;30.12
40948;BME280;49382;-25.924;28.194;2022-10-16T10:20:22;85294.04;;;23.18;30.96
40948;BME280;49382;-25.924;28.194;2022-10-16T10:22:42;85288.83;;;22.86;31.40
40948;BME280;49382;-25.924;28.194;2022-10-16T10:27:35;85288.04;;;22.92;30.53
40948;BME280;49382;-25.924;28.194;2022-10-16T10:29:59;85279.01;;;22.52;30.54
40948;BME280;49382;-25.924;28.194;2022-10-16T10:32:24;85277.96;;;23.40;29.99
40948;BME280;49382;-25.924;28.194;2022-10-16T10:34:55;85273.30;;;24.45;28.66
40948;BME280;49382;-25.924;28.194;2022-10-16T10:37:19;85272.85;;;24.82;29.15
40948;BME280;49382;-25.924;28.194;2022-10-16T10:39:40;85269.01;;;24.10;28.86
40948;BME280;49382;-25.924;28.194;2022-10-16T10:42:12;85266.48;;;23.98;29.39
40948;BME280;49382;-25.924;28.194;2022-10-16T10:44:36;85272.05;;;24.91;29.86
40948;BME280;49382;-25.924;28.194;2022-10-16T10:46:54;85256.92;;;23.84;29.38
40948;BME280;49382;-25.924;28.194;2022-10-16T10:49:30;85252.62;;;24.89;28.24
40948;BME280;49382;-25.924;28.194;2022-10-16T10:51:51;85250.86;;;23.89;29.53
40948;BME280;49382;-25.924;28.194;2022-10-16T10:54:15;85254.09;;;23.80;28.78
40948;BME280;49382;-25.924;28.194;2022-10-16T10:56:45;85255.43;;;24.01;28.28
40948;BME280;49382;-25.924;28.194;2022-10-16T10:59:09;85251.85;;;23.54;28.96
40948;BME280;49382;-25.924;28.194;2022-10-16T11:01:33;85254.41;;;24.06;27.85
40948;BME280;49382;-25.924;28.194;2022-10-16T11:06:19;85245.55;;;23.64;29.23
40948;BME280;49382;-25.924;28.194;2022-10-16T11:08:46;85248.55;;;23.55;30.15
40948;BME280;49382;-25.924;28.194;2022-10-16T11:11:11;85242.79;;;23.54;30.57
40948;BME280;49382;-25.924;28.194;2022-10-16T11:13:37;85248.95;;;22.99;30.01
40948;BME280;49382;-25.924;28.194;2022-10-16T11:16:00;85241.97;;;23.59;29.02
40948;BME280;49382;-25.924;28.194;2022-10-16T11:18:30;85237.53;;;23.58;28.49
40948;BME280;49382;-25.924;28.194;2022-10-16T11:20:52;85234.37;;;24.07;28.00
40948;BME280;49382;-25.924;28.194;2022-10-16T11:23:18;85237.45;;;23.49;29.32
40948;BME280;49382;-25.924;28.194;2022-10-16T11:25:39;85241.78;;;23.76;29.21
40948;BME280;49382;-25.924;28.194;2022-10-16T11:28:10;85234.94;;;23.93;29.41
40948;BME280;49382;-25.924;28.194;2022-10-16T11:30:33;85235.32;;;24.37;29.46
40948;BME280;49382;-25.924;28.194;2022-10-16T11:33:08;85231.66;;;23.81;28.33
40948;BME280;49382;-25.924;28.194;2022-10-16T11:35:25;85234.16;;;24.48;28.42
40948;BME280;49382;-25.924;28.194;2022-10-16T11:37:47;85221.94;;;24.37;29.05
40948;BME280;49382;-25.924;28.194;2022-10-16T11:40:22;85217.78;;;24.75;28.43
40948;BME280;49382;-25.924;28.194;2022-10-16T11:42:40;85223.74;;;23.52;30.47
40948;BME280;49382;-25.924;28.194;2022-10-16T11:45:08;85209.45;;;23.72;31.43
40948;BME280;49382;-25.924;28.194;2022-10-16T11:47:33;85210.81;;;24.36;29.51
40948;BME280;49382;-25.924;28.194;2022-10-16T11:49:58;85207.82;;;23.66;29.84
40948;BME280;49382;-25.924;28.194;2022-10-16T11:52:25;85199.28;;;26.07;27.21
40948;BME280;49382;-25.924;28.194;2022-10-16T11:54:49;85200.25;;;23.82;29.06
40948;BME280;49382;-25.924;28.194;2022-10-16T11:57:15;85191.55;;;24.10;28.77
40948;BME280;49382;-25.924;28.194;2022-10-16T11:59:42;85194.64;;;23.75;28.67
40948;BME280;49382;-25.924;28.194;2022-10-16T12:04:34;85181.25;;;24.59;28.41
40948;BME280;49382;-25.924;28.194;2022-10-16T12:06:58;85184.95;;;24.28;28.92
40948;BME280;49382;-25.924;28.194;2022-10-16T12:09:22;85180.88;;;25.57;27.82
40948;BME280;49382;-25.924;28.194;2022-10-16T12:11:45;85178.39;;;24.82;28.65
40948;BME280;49382;-25.924;28.194;2022-10-16T12:14:20;85180.49;;;23.14;29.92
40948;BME280;49382;-25.924;28.194;2022-10-16T12:16:38;85177.25;;;25.11;28.06
40948;BME280;49382;-25.924;28.194;2022-10-16T12:19:11;85180.73;;;23.93;28.93
40948;BME280;49382;-25.924;28.194;2022-10-16T12:21:31;85178.52;;;24.31;28.33
40948;BME280;49382;-25.924;28.194;2022-10-16T12:23:55;85180.58;;;24.26;29.18
40948;BME280;49382;-25.924;28.194;2022-10-16T12:26:24;85178.25;;;22.83;30.14
40948;BME280;49382;-25.924;28.194;2022-10-16T12:28:45;85177.67;;;23.73;28.78
40948;BME280;49382;-25.924;28.194;2022-10-16T12:31:11;85171.61;;;23.95;28.92
40948;BME280;49382;-25.924;28.194;2022-10-16T12:33:39;85170.97;;;25.02;28.58
40948;BME280;49382;-25.924;28.194;2022-10-16T12:36:05;85166.10;;;25.77;26.52
40948;BME280;49382;-25.924;28.194;2022-10-16T12:38:30;85172.94;;;25.73;26.05
40948;BME280;49382;-25.924;28.194;2022-10-16T12:40:59;85166.88;;;25.48;26.75
40948;BME280;49382;-25.924;28.194;2022-10-16T12:43:25;85176.49;;;25.47;27.35
40948;BME280;49382;-25.924;28.194;2022-10-16T12:45:45;85177.20;;;25.65;27.17
40948;BME280;49382;-25.924;28.194;2022-10-16T12:48:19;85180.61;;;26.24;26.60